createdAt,value
2018-04-13T00:00:28.618Z,0.00
2018-04-13T00:01:28.690Z,0.00
2018-04-13T00:02:28.686Z,0.00
2018-04-13T00:03:49.696Z,0.00
2018-04-13T00:04:28.702Z,0.00
2018-04-13T00:05:28.724Z,0.00
2018-04-13T00:06:28.782Z,0.00
2018-04-13T00:07:28.758Z,0.00
2018-04-13T00:08:28.773Z,0.00
2018-04-13T00:09:49.834Z,0.00
2018-04-13T00:10:28.829Z,0.00
2018-04-13T00:11:28.857Z,0.00
2018-04-13T00:12:28.865Z,0.00
2018-04-13T00:13:28.987Z,0.00
2018-04-13T00:14:28.934Z,0.00
2018-04-13T00:15:49.925Z,0.00
2018-04-13T00:16:28.917Z,0.00
2018-04-13T00:17:28.949Z,0.00
2018-04-13T00:18:28.957Z,0.00
2018-04-13T00:19:28.993Z,0.00
2018-04-13T00:20:29.004Z,0.00
2018-04-13T00:21:50.181Z,0.00
2018-04-13T00:22:29.045Z,0.00
2018-04-13T00:23:29.149Z,0.00
2018-04-13T00:24:29.126Z,0.00
2018-04-13T00:25:29.103Z,0.00
2018-04-13T00:26:29.133Z,0.00
2018-04-13T00:27:50.150Z,0.00
2018-04-13T00:28:29.195Z,0.00
2018-04-13T00:29:29.492Z,0.00
2018-04-13T00:30:29.207Z,0.00
2018-04-13T00:31:29.223Z,0.00
2018-04-13T00:32:29.225Z,0.00
2018-04-13T00:33:50.253Z,0.00
2018-04-13T00:34:29.265Z,0.00
2018-04-13T00:35:29.296Z,0.00
2018-04-13T00:36:29.335Z,0.00
2018-04-13T00:37:29.317Z,0.00
2018-04-13T00:38:29.380Z,0.00
2018-04-13T00:39:50.406Z,0.00
2018-04-13T00:40:29.423Z,0.00
2018-04-13T00:41:29.380Z,0.00
2018-04-13T00:42:29.424Z,0.00
2018-04-13T00:43:29.428Z,0.00
2018-04-13T00:44:29.469Z,0.00
2018-04-13T00:45:50.483Z,0.00
2018-04-13T00:46:29.489Z,0.00
2018-04-13T00:47:29.538Z,0.00
2018-04-13T00:48:29.534Z,0.00
2018-04-13T00:49:29.737Z,0.00
2018-04-13T00:50:29.635Z,0.00
2018-04-13T00:51:51.062Z,0.00
2018-04-13T00:52:29.677Z,0.00
2018-04-13T00:53:29.769Z,0.00
2018-04-13T00:54:30.214Z,0.00
2018-04-13T00:55:29.897Z,0.00
2018-04-13T00:56:29.976Z,0.00
2018-04-13T00:57:51.245Z,0.00
2018-04-13T00:58:29.734Z,0.00
2018-04-13T00:59:29.733Z,0.00
2018-04-13T01:00:29.800Z,0.00
2018-04-13T01:01:30.522Z,0.00
2018-04-13T01:02:29.866Z,0.00
2018-04-13T01:03:50.896Z,0.00
2018-04-13T01:04:29.841Z,0.00
2018-04-13T01:05:29.853Z,0.00
2018-04-13T01:06:29.890Z,0.00
2018-04-13T01:07:29.878Z,0.00
2018-04-13T01:08:29.925Z,0.00
2018-04-13T01:09:50.938Z,0.00
2018-04-13T01:10:29.946Z,0.00
2018-04-13T01:11:29.958Z,0.00
2018-04-13T01:12:30.073Z,0.00
2018-04-13T01:13:29.977Z,0.00
2018-04-13T01:14:30.004Z,0.00
2018-04-13T01:15:51.036Z,0.00
2018-04-13T01:16:30.056Z,0.00
2018-04-13T01:17:30.062Z,0.00
2018-04-13T01:18:30.069Z,0.00
2018-04-13T01:19:30.105Z,0.00
2018-04-13T01:20:30.114Z,0.00
2018-04-13T01:21:51.149Z,0.00
2018-04-13T01:22:30.182Z,0.00
2018-04-13T01:23:30.171Z,0.00
2018-04-13T01:24:30.179Z,0.00
2018-04-13T01:25:30.215Z,0.00
2018-04-13T01:26:30.248Z,0.00
2018-04-13T01:27:51.258Z,0.00
2018-04-13T01:28:30.292Z,0.00
2018-04-13T01:29:30.276Z,0.00
2018-04-13T01:30:30.319Z,0.00
2018-04-13T01:31:30.303Z,0.00
2018-04-13T01:32:30.357Z,0.00
2018-04-13T01:33:51.367Z,0.00
2018-04-13T01:34:30.377Z,0.00
2018-04-13T01:35:30.389Z,0.00
2018-04-13T01:36:30.405Z,0.00
2018-04-13T01:37:30.439Z,0.00
2018-04-13T01:38:30.452Z,0.00
2018-04-13T01:39:51.487Z,0.00
2018-04-13T01:40:30.495Z,0.00
2018-04-13T01:41:30.503Z,0.00
2018-04-13T01:42:30.524Z,0.00
2018-04-13T01:43:30.551Z,0.00
2018-04-13T01:44:30.593Z,0.00
2018-04-13T01:45:51.599Z,0.00
2018-04-13T01:46:30.604Z,0.00
2018-04-13T01:47:30.613Z,0.00
2018-04-13T03:47:53.132Z,0.00
2018-04-13T03:48:53.116Z,0.00
2018-04-13T03:50:46.053Z,0.00
2018-04-13T03:51:46.030Z,0.00
2018-04-13T03:53:38.955Z,0.00
2018-04-13T03:54:38.954Z,0.00
2018-04-13T03:56:31.888Z,0.00
2018-04-13T03:57:31.879Z,0.00
2018-04-13T03:59:24.823Z,0.00
2018-04-13T04:00:24.815Z,0.00
2018-04-13T04:02:17.770Z,0.00
2018-04-13T04:03:17.785Z,0.00
2018-04-13T04:05:10.774Z,0.00
2018-04-13T04:06:10.710Z,0.00
2018-04-13T04:08:03.634Z,0.00
2018-04-13T04:09:03.690Z,0.00
2018-04-13T04:10:56.605Z,0.00
2018-04-13T04:11:56.617Z,0.00
2018-04-13T04:13:49.540Z,0.00
2018-04-13T04:14:49.505Z,0.00
2018-04-13T04:16:42.956Z,0.00
2018-04-13T04:17:42.944Z,0.00
2018-04-13T04:19:35.894Z,4.00
2018-04-13T04:20:35.882Z,0.00
2018-04-13T04:22:28.817Z,4.00
2018-04-13T04:23:28.817Z,4.00
2018-04-13T04:25:21.802Z,8.00
2018-04-13T04:26:21.766Z,12.00
2018-04-13T04:28:14.678Z,8.00
2018-04-13T04:29:14.692Z,12.00
2018-04-13T04:31:07.803Z,16.00
2018-04-13T04:32:07.630Z,20.00
2018-04-13T04:34:00.551Z,24.00
2018-04-13T04:35:00.563Z,28.00
2018-04-13T04:36:53.555Z,40.00
2018-04-13T04:37:53.501Z,44.00
2018-04-13T04:39:46.472Z,60.00
2018-04-13T04:40:46.456Z,64.00
2018-04-13T04:42:39.868Z,76.00
2018-04-13T04:43:39.878Z,84.00
2018-04-13T04:45:32.825Z,100.00
2018-04-13T04:46:32.816Z,112.00
2018-04-13T04:48:25.754Z,144.00
2018-04-13T04:49:25.772Z,152.00
2018-04-13T04:51:20.206Z,184.00
2018-04-13T04:52:20.200Z,212.00
2018-04-13T04:54:13.629Z,260.00
2018-04-13T04:55:13.642Z,292.00
2018-04-13T04:57:06.588Z,352.00
2018-04-13T04:58:06.592Z,396.00
2018-04-13T04:59:59.537Z,456.00
2018-04-13T05:00:59.528Z,492.00
2018-04-13T05:02:52.451Z,524.00
2018-04-13T05:03:52.474Z,512.00
2018-04-13T05:05:45.415Z,492.00
2018-04-13T05:06:45.406Z,496.00
2018-04-13T05:08:38.327Z,528.00
2018-04-13T05:09:38.336Z,552.00
2018-04-13T05:11:31.819Z,568.00
2018-04-13T05:12:31.773Z,596.00
2018-04-13T05:14:26.194Z,644.00
2018-04-13T05:15:26.203Z,676.00
2018-04-13T05:17:19.175Z,712.00
2018-04-13T05:18:19.140Z,728.00
2018-04-13T05:20:12.081Z,772.00
2018-04-13T05:21:12.076Z,796.00
2018-04-13T05:23:05.020Z,848.00
2018-04-13T05:24:05.016Z,876.00
2018-04-13T05:25:57.958Z,924.00
2018-04-13T05:26:57.960Z,940.00
2018-04-13T05:28:51.380Z,964.00
2018-04-13T05:29:51.382Z,968.00
2018-04-13T05:31:44.342Z,1004.00
2018-04-13T05:32:44.330Z,1036.00
2018-04-13T05:34:37.752Z,1104.00
2018-04-13T05:35:37.758Z,1140.00
2018-04-13T05:37:30.707Z,1188.00
2018-04-13T05:38:30.700Z,1220.00
2018-04-13T05:40:23.634Z,1300.00
2018-04-13T05:41:23.647Z,1340.00
2018-04-13T05:43:16.597Z,1404.00
2018-04-13T05:44:16.588Z,1436.00
2018-04-13T05:46:10.118Z,1500.00
2018-04-13T05:47:10.018Z,1544.00
2018-04-13T05:49:02.948Z,1628.00
2018-04-13T05:50:02.957Z,1668.00
2018-04-13T05:51:56.403Z,1752.00
2018-04-13T05:52:56.391Z,1796.00
2018-04-13T05:54:49.813Z,1856.00
2018-04-13T05:55:49.844Z,1880.00
2018-04-13T05:57:42.792Z,1924.00
2018-04-13T05:58:42.760Z,1944.00
2018-04-13T06:00:35.687Z,1968.00
2018-04-13T06:01:35.704Z,1980.00
2018-04-13T06:03:28.650Z,2020.00
2018-04-13T06:04:28.645Z,2048.00
2018-04-13T06:06:21.634Z,2092.00
2018-04-13T06:07:21.623Z,2120.00
2018-04-13T06:09:14.513Z,2164.00
2018-04-13T06:10:14.529Z,2192.00
2018-04-13T06:12:07.537Z,2256.00
2018-04-13T06:13:07.518Z,2296.00
2018-04-13T06:15:00.469Z,2372.00
2018-04-13T06:16:00.475Z,2412.00
2018-04-13T06:17:53.429Z,2500.00
2018-04-13T06:18:53.449Z,2544.00
2018-04-13T06:22:31.682Z,2696.00
2018-04-13T06:23:31.725Z,2736.00
2018-04-13T06:25:24.630Z,2812.00
2018-04-13T06:26:24.634Z,2856.00
2018-04-13T06:28:17.640Z,2952.00
2018-04-13T06:29:17.552Z,3008.00
2018-04-13T06:31:10.485Z,3132.00
2018-04-13T06:32:10.477Z,3204.00
2018-04-13T06:34:03.404Z,3368.00
2018-04-13T06:35:03.423Z,3504.00
2018-04-13T06:36:56.363Z,3676.00
2018-04-13T06:37:56.362Z,3716.00
2018-04-13T06:39:49.341Z,3748.00
2018-04-13T06:40:49.317Z,3768.00
2018-04-13T06:42:42.740Z,3844.00
2018-04-13T06:43:42.792Z,3876.00
2018-04-13T06:45:35.711Z,3984.00
2018-04-13T06:46:35.698Z,4064.00
2018-04-13T06:48:28.617Z,4124.00
2018-04-13T06:49:28.630Z,4224.00
2018-04-13T06:51:22.052Z,4884.00
2018-04-13T06:52:22.044Z,4988.00
2018-04-13T06:54:14.966Z,5332.00
2018-04-13T06:55:14.993Z,5604.00
2018-04-13T06:57:07.923Z,5656.00
2018-04-13T06:58:07.926Z,5852.00
2018-04-13T07:00:00.860Z,6428.00
2018-04-13T07:01:00.863Z,6496.00
2018-04-13T07:02:53.860Z,6708.00
2018-04-13T07:03:53.851Z,6704.00
2018-04-13T07:05:46.880Z,6504.00
2018-04-13T07:06:46.901Z,6748.00
2018-04-13T07:08:39.869Z,7128.00
2018-04-13T07:09:39.850Z,7000.00
2018-04-13T07:10:39.868Z,6516.00
2018-04-13T07:11:39.891Z,6168.00
2018-04-13T07:12:39.926Z,6136.00
2018-04-13T07:13:39.984Z,5728.00
2018-04-13T07:14:39.967Z,5776.00
2018-04-13T07:15:40.016Z,6108.00
2018-04-13T07:16:40.004Z,6332.00
2018-04-13T07:17:40.041Z,6156.00
2018-04-13T07:18:40.051Z,6052.00
2018-04-13T07:19:40.051Z,6068.00
2018-04-13T07:20:40.076Z,6144.00
2018-04-13T07:21:40.093Z,6232.00
2018-04-13T07:22:40.109Z,6340.00
2018-04-13T07:23:40.155Z,6304.00
2018-04-13T07:24:40.153Z,6284.00
2018-04-13T07:25:40.171Z,6296.00
2018-04-13T07:26:40.224Z,6188.00
2018-04-13T07:27:40.212Z,6408.00
2018-04-13T07:28:40.253Z,6552.00
2018-04-13T07:29:40.263Z,6704.00
2018-04-13T07:30:40.279Z,6656.00
2018-04-13T07:31:40.330Z,6104.00
2018-04-13T07:32:40.318Z,6048.00
2018-04-13T07:33:40.781Z,5988.00
2018-04-13T07:34:40.356Z,6000.00
2018-04-13T07:35:40.378Z,6200.00
2018-04-13T07:36:40.408Z,6108.00
2018-04-13T07:37:40.416Z,5980.00
2018-04-13T07:40:43.517Z,6312.00
